createdAt,value
2023-10-20T00:00:26.231Z,13.50
2023-10-20T00:02:54.303Z,13.77
2023-10-20T00:05:22.323Z,13.57
2023-10-20T00:07:52.090Z,13.25
2023-10-20T00:10:20.126Z,12.57
2023-10-20T00:12:48.026Z,13.17
2023-10-20T00:15:17.120Z,13.25
2023-10-20T00:17:46.284Z,12.73
2023-10-20T00:20:14.694Z,13.60
2023-10-20T00:22:43.698Z,13.52
2023-10-20T00:25:13.451Z,13.37
2023-10-20T00:27:42.449Z,14.05
2023-10-20T00:30:12.798Z,13.93
2023-10-20T00:32:42.120Z,13.05
2023-10-20T00:35:14.743Z,14.13
2023-10-20T00:37:43.408Z,13.80
2023-10-20T00:40:14.461Z,14.23
2023-10-20T00:42:42.691Z,13.52
2023-10-20T00:45:12.144Z,13.43
2023-10-20T00:47:41.731Z,13.80
2023-10-20T00:50:13.274Z,13.90
2023-10-20T00:52:43.974Z,14.13
2023-10-20T00:55:14.925Z,14.45
2023-10-20T00:57:45.175Z,14.13
2023-10-20T01:00:15.121Z,13.35
2023-10-20T01:02:43.808Z,13.27
2023-10-20T01:05:15.983Z,13.68
2023-10-20T01:07:44.917Z,13.15
2023-10-20T01:10:14.893Z,13.05
2023-10-20T01:12:43.348Z,13.70
2023-10-20T01:15:12.438Z,13.60
2023-10-20T01:17:41.088Z,13.45
2023-10-20T01:20:10.018Z,14.60
2023-10-20T01:22:38.115Z,14.93
2023-10-20T01:25:08.420Z,13.60
2023-10-20T01:27:37.306Z,13.93
2023-10-20T01:30:06.353Z,12.98
2023-10-20T01:32:34.426Z,14.00
2023-10-20T01:35:02.512Z,14.57
2023-10-20T01:37:30.504Z,14.55
2023-10-20T01:39:58.464Z,14.50
2023-10-20T01:42:28.867Z,14.73
2023-10-20T01:44:56.824Z,14.93
2023-10-20T01:47:25.630Z,13.75
2023-10-20T01:49:54.606Z,15.13
2023-10-20T01:52:23.039Z,14.00
2023-10-20T01:54:51.559Z,15.65
2023-10-20T01:57:19.724Z,14.73
2023-10-20T01:59:49.731Z,14.05
2023-10-20T02:02:17.869Z,14.18
2023-10-20T02:04:45.965Z,14.47
2023-10-20T02:07:14.320Z,14.63
2023-10-20T02:09:42.472Z,14.95
2023-10-20T02:12:11.745Z,14.35
2023-10-20T02:14:39.708Z,15.18
2023-10-20T02:17:09.726Z,14.97
2023-10-20T02:19:37.884Z,15.52
2023-10-20T02:22:05.911Z,14.18
2023-10-20T02:24:34.112Z,14.32
2023-10-20T02:27:02.539Z,13.95
2023-10-20T02:29:31.119Z,15.00
2023-10-20T02:31:59.131Z,15.38
2023-10-20T02:34:28.692Z,15.07
2023-10-20T02:36:56.726Z,14.63
2023-10-20T02:39:24.672Z,14.80
2023-10-20T02:41:55.356Z,14.57
2023-10-20T02:44:24.086Z,14.65
2023-10-20T02:46:52.513Z,15.13
2023-10-20T02:49:21.194Z,14.27
2023-10-20T02:51:50.660Z,15.43
2023-10-20T02:54:18.666Z,15.43
2023-10-20T02:56:46.645Z,15.52
2023-10-20T02:59:14.780Z,15.32
2023-10-20T03:01:42.752Z,15.23
2023-10-20T03:04:10.897Z,15.00
2023-10-20T03:06:38.964Z,14.07
2023-10-20T03:09:08.357Z,15.27
2023-10-20T03:11:36.645Z,15.00
2023-10-20T03:14:04.695Z,14.63
2023-10-20T03:16:32.723Z,14.00
2023-10-20T03:19:02.410Z,14.67
2023-10-20T03:21:31.615Z,14.20
2023-10-20T03:23:59.985Z,14.55
2023-10-20T03:26:29.481Z,14.65
2023-10-20T03:28:57.806Z,14.77
2023-10-20T03:31:26.098Z,14.63
2023-10-20T03:33:54.222Z,14.52
2023-10-20T03:36:23.154Z,15.15
2023-10-20T03:38:52.132Z,14.30
2023-10-20T03:41:20.542Z,14.10
2023-10-20T03:43:51.893Z,13.00
2023-10-20T03:46:19.986Z,14.80
2023-10-20T03:48:48.145Z,14.43
2023-10-20T03:51:18.436Z,13.90
2023-10-20T03:53:51.868Z,14.13
2023-10-20T03:56:23.357Z,13.50
2023-10-20T03:58:53.006Z,14.15
2023-10-20T04:01:22.488Z,12.60
2023-10-20T04:03:52.843Z,14.07
2023-10-20T04:06:21.763Z,13.48
2023-10-20T04:08:50.066Z,12.30
2023-10-20T04:11:18.404Z,13.57
2023-10-20T04:13:46.395Z,13.52
2023-10-20T04:16:18.560Z,12.60
2023-10-20T04:18:48.232Z,12.85
2023-10-20T04:21:16.182Z,14.03
2023-10-20T04:23:45.117Z,14.70
2023-10-20T04:26:20.557Z,13.52
2023-10-20T04:28:49.396Z,14.35
2023-10-20T04:31:38.855Z,13.80
2023-10-20T04:34:24.481Z,13.43
2023-10-20T04:37:10.056Z,13.18
2023-10-20T04:39:55.562Z,12.30
2023-10-20T04:42:40.338Z,13.07
2023-10-20T04:45:26.264Z,13.05
2023-10-20T04:48:16.368Z,13.67
2023-10-20T04:51:09.905Z,14.25
2023-10-20T04:53:54.813Z,13.70
2023-10-20T04:56:37.344Z,13.32
2023-10-20T04:59:11.243Z,14.23
2023-10-20T05:01:48.736Z,12.60
2023-10-20T05:04:22.492Z,12.95
2023-10-20T05:06:59.597Z,12.70
2023-10-20T05:09:28.112Z,12.52
2023-10-20T05:11:57.010Z,15.13
2023-10-20T05:14:25.179Z,13.40
2023-10-20T05:16:53.532Z,13.65
2023-10-20T05:19:23.116Z,12.25
2023-10-20T05:21:51.964Z,13.23
2023-10-20T05:24:20.057Z,11.88
2023-10-20T05:26:48.392Z,13.40
2023-10-20T05:29:16.704Z,12.85
2023-10-20T05:31:45.108Z,12.98
2023-10-20T05:34:14.643Z,12.57
2023-10-20T05:36:45.617Z,11.90
2023-10-20T05:39:15.329Z,11.67
2023-10-20T05:41:45.045Z,11.82
2023-10-20T05:44:15.735Z,12.85
2023-10-20T05:46:44.161Z,11.43
2023-10-20T05:49:12.330Z,12.43
2023-10-20T05:51:40.472Z,11.70
2023-10-20T05:54:10.146Z,12.60
2023-10-20T05:56:38.334Z,12.18
2023-10-20T05:59:06.395Z,13.50
2023-10-20T06:01:34.726Z,11.63
2023-10-20T06:04:03.032Z,11.53
2023-10-20T06:06:32.244Z,11.30
2023-10-20T06:09:00.399Z,10.85
2023-10-20T06:11:29.845Z,10.20
2023-10-20T06:13:57.863Z,10.95
2023-10-20T06:16:26.451Z,10.97
2023-10-20T06:18:54.713Z,9.82
2023-10-20T06:21:24.215Z,10.45
2023-10-20T06:23:52.675Z,10.43
2023-10-20T06:26:20.713Z,10.63
2023-10-20T06:28:50.247Z,10.57
2023-10-20T06:31:42.563Z,10.38
2023-10-20T06:34:24.911Z,11.55
2023-10-20T06:37:02.106Z,11.95
2023-10-20T06:39:31.904Z,12.25
2023-10-20T06:42:00.361Z,10.93
2023-10-20T06:44:30.234Z,10.20
2023-10-20T06:46:58.770Z,11.05
2023-10-20T06:49:26.842Z,10.63
2023-10-20T06:51:54.824Z,10.35
2023-10-20T06:54:22.857Z,10.63
2023-10-20T06:56:50.893Z,11.82
2023-10-20T06:59:19.151Z,10.93
2023-10-20T07:01:48.852Z,11.18
2023-10-20T07:04:18.091Z,11.27
2023-10-20T07:06:50.196Z,10.70
2023-10-20T07:09:20.039Z,10.70
2023-10-20T07:11:49.776Z,10.98
2023-10-20T07:14:18.580Z,10.25
2023-10-20T07:16:50.464Z,10.82
2023-10-20T07:19:25.006Z,10.33
2023-10-20T07:22:00.617Z,9.38
2023-10-20T07:24:40.901Z,8.52
2023-10-20T07:27:09.149Z,8.82
2023-10-20T07:29:42.828Z,7.97
2023-10-20T07:32:14.825Z,7.70
2023-10-20T07:34:43.148Z,7.70
2023-10-20T07:37:12.012Z,8.15
2023-10-20T07:39:40.016Z,8.63
2023-10-20T07:42:08.075Z,7.72
2023-10-20T07:44:36.594Z,7.93
2023-10-20T07:47:04.962Z,8.25
2023-10-20T07:49:34.261Z,8.32
2023-10-20T07:52:05.687Z,8.38
2023-10-20T07:54:34.600Z,7.63
2023-10-20T07:57:04.378Z,7.23
2023-10-20T07:59:32.942Z,7.50
2023-10-20T08:02:01.045Z,7.22
2023-10-20T08:04:29.278Z,7.00
2023-10-20T08:07:00.824Z,7.72
2023-10-20T08:09:32.648Z,7.07
2023-10-20T08:12:02.466Z,6.90
2023-10-20T08:14:31.579Z,6.10
2023-10-20T08:17:04.455Z,6.95
2023-10-20T08:19:32.741Z,6.90
2023-10-20T08:22:02.757Z,6.60
2023-10-20T08:24:31.231Z,6.00
2023-10-20T08:26:59.365Z,5.78
2023-10-20T08:29:28.455Z,5.38
2023-10-20T08:31:56.521Z,5.50
2023-10-20T08:34:24.698Z,5.70
2023-10-20T08:36:52.890Z,4.88
2023-10-20T08:39:26.645Z,4.53
2023-10-20T08:41:54.798Z,3.85
2023-10-20T08:44:23.503Z,3.78
2023-10-20T08:46:56.169Z,3.77
2023-10-20T08:49:24.491Z,3.70
2023-10-20T08:51:55.238Z,3.90
2023-10-20T08:54:25.423Z,3.58
2023-10-20T08:56:54.621Z,3.78
2023-10-20T08:59:22.714Z,2.80
2023-10-20T09:01:53.342Z,2.70
2023-10-20T09:04:25.154Z,3.20
2023-10-20T09:06:53.865Z,2.95
2023-10-20T09:09:22.502Z,2.65
2023-10-20T09:11:52.172Z,2.63
2023-10-20T09:14:20.421Z,2.38
2023-10-20T09:16:48.430Z,2.45
2023-10-20T09:19:16.724Z,2.40
2023-10-20T09:21:47.717Z,2.83
2023-10-20T09:24:19.547Z,2.27
2023-10-20T09:26:49.367Z,2.30
2023-10-20T09:29:22.731Z,2.20
2023-10-20T09:31:52.874Z,2.35
2023-10-20T09:34:22.317Z,2.72
2023-10-20T09:36:58.017Z,2.33
2023-10-20T09:39:38.563Z,1.90
2023-10-20T09:42:08.282Z,2.00
2023-10-20T09:44:46.084Z,1.70
2023-10-20T09:47:24.134Z,2.10
2023-10-20T09:49:54.199Z,2.30
2023-10-20T09:52:27.269Z,2.00
2023-10-20T09:55:12.607Z,1.38
2023-10-20T09:57:41.085Z,1.85
2023-10-20T10:00:13.993Z,2.00
2023-10-20T10:02:42.167Z,1.70
2023-10-20T10:05:11.401Z,1.52
2023-10-20T10:07:40.180Z,1.30
2023-10-20T10:10:09.361Z,1.30
2023-10-20T10:12:38.094Z,1.35
2023-10-20T10:15:09.126Z,1.47
2023-10-20T10:17:47.259Z,1.30
2023-10-20T10:20:20.751Z,1.20
2023-10-20T10:22:48.623Z,1.05
2023-10-20T10:25:19.674Z,1.23
2023-10-20T10:27:47.706Z,1.20
2023-10-20T10:30:17.105Z,1.08
2023-10-20T10:32:48.948Z,1.13
2023-10-20T10:35:18.209Z,1.55
2023-10-20T10:37:46.288Z,1.25
2023-10-20T10:40:16.044Z,1.10
2023-10-20T10:42:46.431Z,1.40
2023-10-20T10:45:20.075Z,1.00
2023-10-20T10:47:50.507Z,1.10
2023-10-20T10:50:21.533Z,1.10
2023-10-20T10:52:51.962Z,0.97
2023-10-20T10:55:21.079Z,0.98
2023-10-20T10:57:49.122Z,0.80
2023-10-20T11:00:18.097Z,0.90
2023-10-20T11:02:47.294Z,1.00
2023-10-20T11:05:18.807Z,1.07
2023-10-20T11:08:00.240Z,1.15
2023-10-20T11:10:29.225Z,0.82
2023-10-20T11:12:57.501Z,0.90
2023-10-20T11:15:29.934Z,0.75
2023-10-20T11:18:02.282Z,0.93
2023-10-20T11:20:37.722Z,0.73
2023-10-20T11:23:08.984Z,1.00
2023-10-20T11:25:38.149Z,1.05
2023-10-20T11:28:07.246Z,0.90
2023-10-20T11:30:38.668Z,0.90
2023-10-20T11:33:07.178Z,0.90
2023-10-20T11:35:39.939Z,0.88
2023-10-20T11:38:07.981Z,1.00
2023-10-20T11:40:36.444Z,1.00
2023-10-20T11:43:05.770Z,0.70
2023-10-20T11:45:34.292Z,0.90
2023-10-20T11:48:02.788Z,1.00
2023-10-20T11:50:31.097Z,0.90
2023-10-20T11:53:00.978Z,1.00
2023-10-20T11:55:28.846Z,0.80
2023-10-20T11:57:56.801Z,0.90
2023-10-20T12:00:24.751Z,1.10
2023-10-20T12:02:52.819Z,0.60
2023-10-20T12:05:21.001Z,0.80
2023-10-20T12:07:49.052Z,1.00
2023-10-20T12:10:18.313Z,0.88
2023-10-20T12:12:46.271Z,0.88
2023-10-20T12:15:14.685Z,0.80
2023-10-20T12:17:42.902Z,0.80
2023-10-20T12:20:11.956Z,0.70
2023-10-20T12:22:39.979Z,0.80
2023-10-20T12:25:08.828Z,0.70
2023-10-20T12:27:39.079Z,0.60
2023-10-20T12:30:10.331Z,0.82
2023-10-20T12:32:38.352Z,0.60
2023-10-20T12:35:07.287Z,0.50
2023-10-20T12:37:35.344Z,0.85
2023-10-20T12:40:03.667Z,0.65
2023-10-20T12:42:31.791Z,0.80
2023-10-20T12:45:03.022Z,0.77
2023-10-20T12:47:33.889Z,0.70
2023-10-20T12:50:02.219Z,0.70
2023-10-20T12:52:30.297Z,0.60
2023-10-20T12:54:58.230Z,0.70
2023-10-20T12:57:26.215Z,0.60
2023-10-20T12:59:54.174Z,0.63
2023-10-20T13:02:23.532Z,0.60
2023-10-20T13:04:52.368Z,0.63
2023-10-20T13:07:21.429Z,0.70
2023-10-20T13:09:49.451Z,0.70
2023-10-20T13:12:17.928Z,0.65
2023-10-20T13:14:46.256Z,0.50
2023-10-20T13:17:15.762Z,0.70
2023-10-20T13:19:45.456Z,0.50
2023-10-20T13:22:13.599Z,0.60
2023-10-20T13:24:42.499Z,0.40
2023-10-20T13:27:10.695Z,0.40
2023-10-20T13:29:39.145Z,0.57
2023-10-20T13:32:07.500Z,0.40
2023-10-20T13:34:36.417Z,0.60
2023-10-20T13:37:06.606Z,0.40
2023-10-20T13:39:35.033Z,0.50
2023-10-20T13:42:05.613Z,0.45
2023-10-20T13:44:35.383Z,0.50
2023-10-20T13:47:03.415Z,0.47
2023-10-20T13:49:31.493Z,0.40
2023-10-20T13:52:00.342Z,0.52
2023-10-20T13:54:29.805Z,0.60
2023-10-20T13:56:57.918Z,0.73
2023-10-20T13:59:26.773Z,0.60
2023-10-20T14:01:55.207Z,0.70
2023-10-20T14:04:25.713Z,0.70
2023-10-20T14:06:58.493Z,0.50
2023-10-20T14:09:27.551Z,0.70
2023-10-20T14:11:56.996Z,0.70
2023-10-20T14:14:31.968Z,0.82
2023-10-20T14:17:07.029Z,0.90
2023-10-20T14:19:35.871Z,0.60
2023-10-20T14:22:04.826Z,0.70
2023-10-20T14:24:33.696Z,0.70
2023-10-20T14:27:03.423Z,0.90
2023-10-20T14:29:31.539Z,0.63
2023-10-20T14:32:00.906Z,0.57
2023-10-20T14:34:29.342Z,0.65
2023-10-20T14:36:57.733Z,0.50
2023-10-20T14:39:27.344Z,0.65
2023-10-20T14:42:23.672Z,0.70
2023-10-20T14:44:52.456Z,0.70
2023-10-20T14:47:21.812Z,0.70
2023-10-20T14:49:50.133Z,0.70
2023-10-20T14:52:18.793Z,0.55
2023-10-20T14:54:46.914Z,0.70
2023-10-20T14:57:15.009Z,0.70
2023-10-20T14:59:44.423Z,0.80
2023-10-20T15:02:12.443Z,0.70
2023-10-20T15:04:41.268Z,0.68
2023-10-20T15:08:23.931Z,0.75
2023-10-20T15:10:52.000Z,0.70
2023-10-20T15:13:21.300Z,0.60
2023-10-20T15:15:51.175Z,0.60
2023-10-20T15:18:28.748Z,0.57
2023-10-20T15:21:00.341Z,0.43
2023-10-20T15:23:28.929Z,0.50
2023-10-20T15:25:57.293Z,0.63
2023-10-20T15:28:25.603Z,0.60
2023-10-20T15:30:56.027Z,0.50
2023-10-20T15:33:24.176Z,0.50
2023-10-20T15:35:52.594Z,0.50
2023-10-20T15:38:20.633Z,0.50
2023-10-20T15:40:52.365Z,0.40
2023-10-20T15:43:21.173Z,0.47
2023-10-20T15:45:49.156Z,0.60
2023-10-20T15:48:18.503Z,0.70
2023-10-20T15:50:47.003Z,0.50
2023-10-20T15:53:15.381Z,0.50
2023-10-20T15:55:44.506Z,0.40
2023-10-20T15:58:13.337Z,0.40
2023-10-20T16:00:47.410Z,0.52
2023-10-20T16:03:18.191Z,0.60
2023-10-20T16:05:50.152Z,0.43
2023-10-20T16:08:18.469Z,0.50
2023-10-20T16:10:46.779Z,0.60
2023-10-20T16:13:18.394Z,0.60
2023-10-20T16:15:46.879Z,0.70
2023-10-20T16:18:15.872Z,0.60
2023-10-20T16:20:45.469Z,0.50
2023-10-20T16:23:14.900Z,0.55
2023-10-20T16:25:44.500Z,0.40
2023-10-20T16:28:12.622Z,0.50
2023-10-20T16:30:41.513Z,0.53
2023-10-20T16:33:10.064Z,0.75
2023-10-20T16:35:44.181Z,0.60
2023-10-20T16:38:12.376Z,0.50
2023-10-20T16:40:42.252Z,0.70
2023-10-20T16:43:10.636Z,0.50
2023-10-20T16:45:39.094Z,0.60
2023-10-20T16:48:08.616Z,0.50
2023-10-20T16:50:36.722Z,0.55
2023-10-20T16:53:07.245Z,0.70
2023-10-20T16:55:38.143Z,0.60
2023-10-20T16:58:08.514Z,0.60
2023-10-20T17:00:37.336Z,0.70
2023-10-20T17:03:07.041Z,0.60
2023-10-20T17:05:38.437Z,0.80
2023-10-20T17:08:07.455Z,0.50
2023-10-20T17:10:39.644Z,0.82
2023-10-20T17:13:09.348Z,0.70
2023-10-20T17:15:37.648Z,0.80
2023-10-20T17:18:09.533Z,0.80
2023-10-20T17:20:41.812Z,0.60
2023-10-20T17:23:10.707Z,0.70
2023-10-20T17:25:39.531Z,1.08
2023-10-20T17:28:09.225Z,0.75
2023-10-20T17:30:38.741Z,0.90
2023-10-20T17:33:07.436Z,0.83
2023-10-20T17:35:36.280Z,0.70
2023-10-20T17:38:05.431Z,0.98
2023-10-20T17:40:36.870Z,0.70
2023-10-20T17:43:06.098Z,1.10
2023-10-20T17:45:42.232Z,0.80
2023-10-20T17:48:11.308Z,0.82
2023-10-20T17:50:40.008Z,0.90
2023-10-20T17:53:11.788Z,0.88
2023-10-20T17:55:42.391Z,1.25
2023-10-20T17:58:11.022Z,1.10
2023-10-20T18:00:42.169Z,1.10
2023-10-20T18:03:12.086Z,1.05
2023-10-20T18:05:41.271Z,1.15
2023-10-20T18:08:10.805Z,1.30
2023-10-20T18:10:44.149Z,1.73
2023-10-20T18:13:15.145Z,1.65
2023-10-20T18:15:46.329Z,1.80
2023-10-20T18:18:14.665Z,1.55
2023-10-20T18:20:42.781Z,1.98
2023-10-20T18:23:11.060Z,2.30
2023-10-20T18:25:39.347Z,2.47
2023-10-20T18:28:08.368Z,2.40
2023-10-20T18:30:37.047Z,2.28
2023-10-20T18:33:06.763Z,2.72
2023-10-20T18:35:35.784Z,2.63
2023-10-20T18:38:03.969Z,2.78
2023-10-20T18:40:37.792Z,2.80
2023-10-20T18:43:06.857Z,3.45
2023-10-20T18:45:36.866Z,3.72
2023-10-20T18:48:08.846Z,3.60
2023-10-20T18:50:38.330Z,3.88
2023-10-20T18:53:07.936Z,4.72
2023-10-20T18:55:36.565Z,4.53
2023-10-20T18:58:06.315Z,5.20
2023-10-20T19:00:36.390Z,5.17
2023-10-20T19:03:08.050Z,4.95
2023-10-20T19:05:36.915Z,5.65
2023-10-20T19:08:05.630Z,5.28
2023-10-20T19:10:34.022Z,6.28
2023-10-20T19:13:02.280Z,6.60
2023-10-20T19:15:31.583Z,6.80
2023-10-20T19:17:59.846Z,7.82
2023-10-20T19:20:29.800Z,7.43
2023-10-20T19:22:58.457Z,7.72
2023-10-20T19:25:41.143Z,8.23
2023-10-20T19:28:11.149Z,8.93
2023-10-20T19:30:39.682Z,9.35
2023-10-20T19:33:08.049Z,10.05
2023-10-20T19:35:37.839Z,10.43
2023-10-20T19:38:06.202Z,10.27
2023-10-20T19:40:35.138Z,11.50
2023-10-20T19:43:03.084Z,11.88
2023-10-20T19:45:31.169Z,11.98
2023-10-20T19:47:59.522Z,12.63
2023-10-20T19:50:28.247Z,13.30
2023-10-20T19:52:58.121Z,13.60
2023-10-20T19:55:26.308Z,13.48
2023-10-20T19:57:54.159Z,13.50
2023-10-20T20:00:22.798Z,14.18
2023-10-20T20:02:51.149Z,14.30
2023-10-20T20:05:19.286Z,14.63
2023-10-20T20:07:47.391Z,14.77
2023-10-20T20:10:19.556Z,14.32
2023-10-20T20:12:48.161Z,13.90
2023-10-20T20:15:17.035Z,12.73
2023-10-20T20:17:45.107Z,12.27
2023-10-20T20:20:16.374Z,12.45
2023-10-20T20:22:44.741Z,12.23
2023-10-20T20:25:13.236Z,11.18
2023-10-20T20:27:43.861Z,11.07
2023-10-20T20:30:13.227Z,11.23
2023-10-20T20:32:41.381Z,11.20
2023-10-20T20:35:10.142Z,11.55
2023-10-20T20:37:38.228Z,11.25
2023-10-20T20:40:09.715Z,10.37
2023-10-20T20:42:37.678Z,10.82
2023-10-20T20:45:08.807Z,11.80
2023-10-20T20:47:37.095Z,11.07
2023-10-20T20:50:10.385Z,11.68
2023-10-20T20:52:41.411Z,11.73
2023-10-20T20:55:09.921Z,10.93
2023-10-20T20:57:39.172Z,11.93
2023-10-20T21:00:12.127Z,11.15
2023-10-20T21:02:40.346Z,11.95
2023-10-20T21:05:08.954Z,12.30
2023-10-20T21:07:37.071Z,11.60
2023-10-20T21:10:05.579Z,12.82
2023-10-20T21:12:33.606Z,12.70
2023-10-20T21:15:01.898Z,12.98
2023-10-20T21:17:32.382Z,14.43
2023-10-20T21:20:00.761Z,13.45
2023-10-20T21:22:29.229Z,13.10
2023-10-20T21:24:58.304Z,13.38
2023-10-20T21:27:27.377Z,13.07
2023-10-20T21:29:55.659Z,12.90
2023-10-20T21:32:23.869Z,14.15
2023-10-20T21:34:53.305Z,13.82
2023-10-20T21:37:21.194Z,14.68
2023-10-20T21:39:49.197Z,14.43
2023-10-20T21:42:17.234Z,13.87
2023-10-20T21:44:46.047Z,14.40
2023-10-20T21:47:14.950Z,14.32
2023-10-20T21:49:43.813Z,14.32
2023-10-20T21:52:14.236Z,14.25
2023-10-20T21:54:42.518Z,13.33
2023-10-20T21:57:10.720Z,13.70
2023-10-20T21:59:38.697Z,14.07
2023-10-20T22:02:10.147Z,13.20
2023-10-20T22:04:42.747Z,13.65
2023-10-20T22:07:31.158Z,11.90
2023-10-20T22:09:59.548Z,13.30
2023-10-20T22:12:27.650Z,12.93
2023-10-20T22:14:56.408Z,12.95
2023-10-20T22:17:26.594Z,13.13
2023-10-20T22:19:54.881Z,11.83
2023-10-20T22:22:22.997Z,12.15
2023-10-20T22:24:53.544Z,11.55
2023-10-20T22:27:21.807Z,11.00
2023-10-20T22:29:50.101Z,10.75
2023-10-20T22:32:18.320Z,11.53
2023-10-20T22:34:46.373Z,10.90
2023-10-20T22:37:15.236Z,11.10
2023-10-20T22:39:43.298Z,10.40
2023-10-20T22:42:13.162Z,11.65
2023-10-20T22:44:42.923Z,11.53
2023-10-20T22:47:11.273Z,10.32
2023-10-20T22:49:39.945Z,11.25
2023-10-20T22:52:08.103Z,11.50
2023-10-20T22:54:36.378Z,11.93
2023-10-20T22:57:05.606Z,11.57
2023-10-20T22:59:36.014Z,12.60
2023-10-20T23:02:04.790Z,12.80
2023-10-20T23:04:33.210Z,11.68
2023-10-20T23:07:01.800Z,12.20
2023-10-20T23:09:31.788Z,11.00
2023-10-20T23:12:00.008Z,11.75
2023-10-20T23:14:29.230Z,11.50
2023-10-20T23:16:59.453Z,12.02
2023-10-20T23:19:27.626Z,11.10
2023-10-20T23:22:00.009Z,10.20
2023-10-20T23:24:28.344Z,9.70
2023-10-20T23:26:59.309Z,10.50
2023-10-20T23:29:27.913Z,10.68
2023-10-20T23:32:00.320Z,10.43
2023-10-20T23:34:31.885Z,10.83
2023-10-20T23:37:04.642Z,10.68
2023-10-20T23:39:38.112Z,10.93
2023-10-20T23:42:07.109Z,10.05
2023-10-20T23:44:42.425Z,10.48
2023-10-20T23:47:12.244Z,10.23
2023-10-20T23:49:40.276Z,11.23
2023-10-20T23:52:10.911Z,10.75
2023-10-20T23:54:38.933Z,11.77
2023-10-20T23:57:09.368Z,10.45
2023-10-20T23:59:41.166Z,11.33
